createdAt,value
2019-03-25T00:01:04.290Z,110.43
2019-03-25T00:03:33.435Z,118.17
2019-03-25T00:06:02.418Z,114.73
2019-03-25T00:08:31.049Z,118.73
2019-03-25T00:11:00.096Z,104.40
2019-03-25T00:13:29.385Z,120.67
2019-03-25T00:15:58.032Z,116.93
2019-03-25T00:18:27.076Z,137.60
2019-03-25T00:20:55.596Z,121.37
2019-03-25T00:23:24.764Z,119.90
2019-03-25T00:25:53.838Z,128.57
2019-03-25T00:28:22.861Z,126.73
2019-03-25T00:30:51.834Z,111.30
2019-03-25T00:33:21.075Z,124.47
2019-03-25T00:35:50.034Z,128.93
2019-03-25T00:38:18.670Z,121.23
2019-03-25T00:40:47.488Z,121.93
2019-03-25T00:43:15.793Z,133.83
2019-03-25T00:45:44.437Z,126.27
2019-03-25T00:48:13.469Z,115.30
2019-03-25T00:50:42.549Z,120.87
2019-03-25T00:53:11.634Z,123.90
2019-03-25T00:55:40.322Z,147.53
2019-03-25T00:58:08.774Z,125.10
2019-03-25T01:00:37.847Z,125.30
2019-03-25T01:03:06.892Z,111.30
2019-03-25T01:05:35.321Z,122.73
2019-03-25T01:08:04.474Z,128.57
2019-03-25T01:10:33.395Z,122.63
2019-03-25T01:13:02.589Z,107.43
2019-03-25T01:15:31.867Z,124.23
2019-03-25T01:18:00.518Z,132.70
2019-03-25T01:20:29.617Z,130.17
2019-03-25T01:22:58.626Z,125.53
2019-03-25T01:25:27.845Z,130.33
2019-03-25T01:27:58.659Z,129.87
2019-03-25T01:30:27.493Z,124.73
2019-03-25T01:32:56.382Z,128.67
2019-03-25T01:35:25.331Z,125.47
2019-03-25T01:37:54.953Z,130.57
2019-03-25T01:40:23.493Z,125.67
2019-03-25T01:42:52.535Z,144.37
2019-03-25T01:45:21.838Z,128.20
2019-03-25T01:47:50.714Z,136.73
2019-03-25T01:50:19.182Z,129.27
2019-03-25T01:52:48.189Z,114.37
2019-03-25T01:55:17.481Z,132.20
2019-03-25T01:57:46.184Z,131.30
2019-03-25T02:00:15.140Z,125.60
2019-03-25T02:02:44.201Z,123.07
2019-03-25T02:05:12.793Z,125.23
2019-03-25T02:07:42.564Z,134.50
2019-03-25T02:10:12.035Z,123.27
2019-03-25T02:12:40.504Z,126.00
2019-03-25T02:15:09.240Z,129.70
2019-03-25T02:17:38.531Z,132.93
2019-03-25T02:20:07.235Z,135.10
2019-03-25T02:22:35.895Z,123.67
2019-03-25T02:25:04.353Z,125.77
2019-03-25T02:27:32.970Z,117.40
2019-03-25T02:30:02.012Z,122.73
2019-03-25T02:32:30.658Z,115.43
2019-03-25T02:34:59.298Z,116.13
2019-03-25T02:37:28.020Z,132.50
2019-03-25T02:39:57.034Z,121.10
2019-03-25T02:42:26.294Z,120.80
2019-03-25T02:44:55.301Z,128.17
2019-03-25T02:47:23.751Z,124.77
2019-03-25T02:49:52.075Z,119.90
2019-03-25T02:52:20.737Z,121.27
2019-03-25T02:54:50.038Z,127.17
2019-03-25T02:57:19.031Z,130.37
2019-03-25T02:59:47.386Z,110.00
2019-03-25T03:02:16.397Z,120.20
2019-03-25T03:04:45.394Z,115.67
2019-03-25T03:07:14.194Z,128.70
2019-03-25T03:09:43.390Z,123.83
2019-03-25T03:12:12.099Z,122.27
2019-03-25T03:14:40.707Z,111.73
2019-03-25T03:17:09.176Z,112.17
2019-03-25T03:19:38.438Z,107.07
2019-03-25T03:22:07.033Z,113.27
2019-03-25T03:24:37.701Z,104.03
2019-03-25T03:27:06.941Z,105.97
2019-03-25T03:29:35.732Z,99.77
2019-03-25T03:32:04.552Z,106.47
2019-03-25T03:34:33.515Z,114.60
2019-03-25T03:37:01.791Z,118.67
2019-03-25T03:39:30.608Z,121.40
2019-03-25T03:41:59.840Z,102.10
2019-03-25T03:44:28.427Z,104.33
2019-03-25T03:46:57.461Z,99.70
2019-03-25T03:49:32.220Z,100.37
2019-03-25T03:52:01.346Z,90.10
2019-03-25T03:54:44.351Z,110.50
2019-03-25T03:57:13.563Z,107.17
2019-03-25T03:59:43.314Z,100.53
2019-03-25T04:02:12.132Z,91.77
2019-03-25T04:04:41.211Z,98.03
2019-03-25T04:07:10.586Z,94.83
2019-03-25T04:09:39.408Z,98.97
2019-03-25T04:12:07.658Z,83.30
2019-03-25T04:14:37.170Z,88.83
2019-03-25T04:17:06.325Z,97.83
2019-03-25T04:19:35.583Z,95.20
2019-03-25T04:22:04.424Z,90.43
2019-03-25T04:24:33.579Z,98.00
2019-03-25T04:27:02.792Z,81.67
2019-03-25T04:29:31.869Z,90.60
2019-03-25T04:32:00.515Z,89.27
2019-03-25T04:34:28.719Z,82.30
2019-03-25T04:36:57.948Z,97.37
2019-03-25T04:39:26.594Z,91.30
2019-03-25T04:41:54.845Z,90.70
2019-03-25T04:44:23.078Z,97.20
2019-03-25T04:46:51.354Z,96.13
2019-03-25T04:49:20.125Z,80.23
2019-03-25T04:51:48.999Z,84.03
2019-03-25T04:54:17.887Z,95.77
2019-03-25T04:56:47.016Z,81.33
2019-03-25T04:59:15.760Z,82.50
2019-03-25T05:01:44.788Z,87.37
2019-03-25T05:04:13.849Z,93.70
2019-03-25T05:06:43.049Z,89.13
2019-03-25T05:09:12.055Z,79.83
2019-03-25T05:11:40.843Z,84.53
2019-03-25T05:14:09.823Z,87.37
2019-03-25T05:16:39.043Z,75.20
2019-03-25T05:19:08.337Z,75.20
2019-03-25T05:21:37.010Z,70.03
2019-03-25T05:24:05.997Z,69.73
2019-03-25T05:26:35.006Z,89.27
2019-03-25T05:29:03.710Z,70.90
2019-03-25T05:31:32.977Z,86.67
2019-03-25T05:34:01.446Z,79.43
2019-03-25T05:36:30.113Z,65.93
2019-03-25T05:39:10.696Z,74.80
2019-03-25T05:41:38.906Z,83.07
2019-03-25T05:44:07.833Z,69.83
2019-03-25T05:46:39.039Z,66.80
2019-03-25T05:49:08.222Z,71.90
2019-03-25T05:51:37.279Z,71.97
2019-03-25T05:54:06.459Z,60.70
2019-03-25T05:56:35.178Z,66.27
2019-03-25T05:59:04.177Z,71.87
2019-03-25T06:01:33.003Z,74.40
2019-03-25T06:04:01.558Z,63.47
2019-03-25T06:06:30.578Z,75.90
2019-03-25T06:08:59.246Z,68.07
2019-03-25T06:11:28.374Z,72.70
2019-03-25T06:13:57.525Z,71.90
2019-03-25T06:16:26.225Z,68.97
2019-03-25T06:18:55.236Z,67.80
2019-03-25T06:21:23.890Z,69.77
2019-03-25T06:23:54.719Z,73.57
2019-03-25T06:26:23.732Z,68.07
2019-03-25T06:28:52.724Z,68.80
2019-03-25T06:31:21.538Z,69.23
2019-03-25T06:33:50.111Z,70.10
2019-03-25T06:36:18.864Z,65.57
2019-03-25T06:38:48.050Z,72.37
2019-03-25T06:41:16.763Z,63.77
2019-03-25T06:43:45.832Z,72.77
2019-03-25T06:46:14.551Z,68.52
2019-03-25T06:48:43.134Z,68.57
2019-03-25T06:51:11.613Z,63.70
2019-03-25T06:53:43.134Z,63.17
2019-03-25T06:56:11.683Z,43.87
2019-03-25T06:58:40.953Z,52.50
2019-03-25T07:01:10.718Z,53.20
2019-03-25T07:03:39.365Z,70.03
2019-03-25T07:06:08.420Z,52.77
2019-03-25T07:08:37.577Z,56.53
2019-03-25T07:11:06.198Z,47.00
2019-03-25T07:13:37.948Z,56.30
2019-03-25T07:16:06.318Z,58.77
2019-03-25T07:18:34.786Z,49.03
2019-03-25T07:21:03.402Z,47.70
2019-03-25T07:23:32.217Z,46.93
2019-03-25T07:26:00.793Z,45.70
2019-03-25T07:28:29.476Z,44.23
2019-03-25T07:30:57.737Z,45.33
2019-03-25T07:33:26.233Z,42.33
2019-03-25T07:35:56.351Z,47.47
2019-03-25T07:38:25.632Z,39.20
2019-03-25T07:40:55.408Z,38.97
2019-03-25T07:43:24.044Z,34.57
2019-03-25T07:45:54.351Z,33.60
2019-03-25T07:48:23.360Z,40.00
2019-03-25T07:50:52.078Z,31.13
2019-03-25T07:53:21.566Z,39.77
2019-03-25T07:55:49.980Z,33.03
2019-03-25T07:58:19.387Z,31.07
2019-03-25T08:00:47.778Z,29.27
2019-03-25T08:03:16.087Z,33.50
2019-03-25T08:05:44.413Z,33.73
2019-03-25T08:08:12.657Z,34.70
2019-03-25T08:10:40.885Z,37.87
2019-03-25T08:13:09.145Z,33.57
2019-03-25T08:15:37.470Z,31.83
2019-03-25T08:18:05.930Z,24.77
2019-03-25T08:20:34.137Z,30.20
2019-03-25T08:23:02.393Z,30.93
2019-03-25T08:25:30.643Z,31.40
2019-03-25T08:28:00.396Z,34.30
2019-03-25T08:30:28.900Z,34.13
2019-03-25T08:32:57.206Z,35.10
2019-03-25T08:35:25.438Z,34.03
2019-03-25T08:37:53.766Z,39.50
2019-03-25T08:40:21.971Z,30.77
2019-03-25T08:42:50.223Z,32.70
2019-03-25T08:45:18.553Z,35.63
2019-03-25T08:47:46.788Z,33.43
2019-03-25T08:50:15.421Z,26.40
2019-03-25T08:52:43.657Z,28.50
2019-03-25T08:55:12.590Z,32.93
2019-03-25T08:57:40.819Z,35.33
2019-03-25T09:00:15.492Z,33.43
2019-03-25T09:02:47.626Z,26.43
2019-03-25T09:05:24.871Z,28.17
2019-03-25T09:07:59.856Z,31.77
2019-03-25T09:10:40.991Z,22.57
2019-03-25T09:13:18.337Z,30.37
2019-03-25T09:15:59.525Z,28.27
2019-03-25T09:18:35.125Z,28.80
2019-03-25T09:21:11.113Z,32.77
2019-03-25T09:23:47.070Z,32.10
2019-03-25T09:26:21.310Z,32.43
2019-03-25T09:28:58.675Z,28.47
2019-03-25T09:31:36.324Z,34.30
2019-03-25T09:33:57.390Z,29.73
2019-03-25T09:36:26.253Z,29.43
2019-03-25T09:38:54.838Z,26.93
2019-03-25T09:41:39.570Z,27.30
2019-03-25T09:44:08.145Z,20.53
2019-03-25T09:46:36.582Z,24.23
2019-03-25T09:49:05.662Z,22.60
2019-03-25T09:51:34.854Z,26.73
2019-03-25T09:54:03.500Z,13.73
2019-03-25T09:56:47.468Z,20.70
2019-03-25T09:59:14.731Z,17.93
2019-03-25T10:01:43.125Z,16.70
2019-03-25T10:04:12.106Z,21.63
2019-03-25T10:06:41.265Z,18.30
2019-03-25T10:09:10.686Z,16.23
2019-03-25T10:11:38.943Z,11.43
2019-03-25T10:14:07.151Z,20.00
2019-03-25T10:16:35.362Z,31.00
2019-03-25T10:19:04.230Z,25.87
2019-03-25T10:21:32.465Z,21.43
2019-03-25T10:24:00.756Z,21.80
2019-03-25T10:26:31.777Z,22.83
2019-03-25T10:29:00.042Z,24.03
2019-03-25T10:31:28.290Z,16.90
2019-03-25T10:33:56.604Z,23.20
2019-03-25T10:36:24.863Z,22.13
2019-03-25T10:38:53.422Z,10.60
2019-03-25T10:41:21.908Z,21.07
2019-03-25T10:43:50.184Z,27.07
2019-03-25T10:46:18.403Z,29.73
2019-03-25T10:48:46.923Z,18.93
2019-03-25T10:51:15.858Z,16.33
2019-03-25T10:53:46.239Z,22.40
2019-03-25T10:56:15.463Z,12.97
2019-03-25T10:58:43.957Z,28.57
2019-03-25T11:01:12.377Z,24.67
2019-03-25T11:03:40.656Z,25.57
2019-03-25T11:06:09.872Z,17.77
2019-03-25T11:08:38.906Z,19.03
2019-03-25T11:11:08.194Z,23.97
2019-03-25T11:13:37.303Z,16.80
2019-03-25T11:16:06.265Z,17.50
2019-03-25T11:18:37.578Z,18.50
2019-03-25T11:21:05.857Z,9.67
2019-03-25T11:23:34.090Z,13.07
2019-03-25T11:26:02.425Z,13.17
2019-03-25T11:28:30.639Z,14.43
2019-03-25T11:31:00.095Z,11.20
2019-03-25T11:33:28.546Z,20.93
2019-03-25T11:35:56.922Z,15.37
2019-03-25T11:38:25.356Z,13.77
2019-03-25T11:40:53.576Z,19.33
2019-03-25T11:43:21.916Z,10.03
2019-03-25T11:45:50.325Z,15.43
2019-03-25T11:48:18.574Z,18.77
2019-03-25T11:50:48.291Z,12.27
2019-03-25T11:53:17.469Z,11.90
2019-03-25T11:55:46.967Z,16.90
2019-03-25T11:58:17.622Z,13.13
2019-03-25T12:00:48.323Z,23.50
2019-03-25T12:03:17.154Z,4.30
2019-03-25T12:05:45.365Z,16.07
2019-03-25T12:08:13.885Z,7.47
2019-03-25T12:10:42.589Z,6.90
2019-03-25T12:13:10.795Z,14.60
2019-03-25T12:15:39.047Z,22.33
2019-03-25T12:18:07.310Z,13.23
2019-03-25T12:20:35.717Z,12.60
2019-03-25T12:23:04.354Z,13.27
2019-03-25T12:25:32.586Z,10.60
2019-03-25T12:28:00.822Z,9.70
2019-03-25T12:30:29.053Z,12.40
2019-03-25T12:33:03.981Z,8.17
2019-03-25T12:35:27.777Z,9.07
2019-03-25T12:37:56.159Z,8.57
2019-03-25T12:40:24.418Z,4.17
2019-03-25T12:42:53.049Z,6.33
2019-03-25T12:45:21.295Z,10.37
2019-03-25T12:47:49.978Z,15.77
2019-03-25T12:50:18.393Z,12.40
2019-03-25T12:52:46.649Z,15.70
2019-03-25T12:55:14.988Z,14.13
2019-03-25T12:57:43.254Z,18.87
2019-03-25T13:00:12.461Z,23.10
2019-03-25T13:02:40.738Z,18.90
2019-03-25T13:05:10.465Z,4.80
2019-03-25T13:07:41.662Z,10.13
2019-03-25T13:10:09.893Z,15.10
2019-03-25T13:12:39.377Z,11.27
2019-03-25T13:15:08.140Z,17.73
2019-03-25T13:17:36.412Z,8.10
2019-03-25T13:20:05.534Z,27.93
2019-03-25T13:22:33.796Z,16.13
2019-03-25T13:25:02.093Z,15.63
2019-03-25T13:27:30.821Z,7.77
2019-03-25T13:29:59.096Z,9.80
2019-03-25T13:32:27.334Z,13.53
2019-03-25T13:34:55.557Z,8.30
2019-03-25T13:37:24.175Z,15.40
2019-03-25T13:39:52.812Z,13.80
2019-03-25T13:42:21.100Z,9.13
2019-03-25T13:44:49.335Z,16.73
2019-03-25T13:47:17.591Z,13.10
2019-03-25T13:49:46.125Z,16.60
2019-03-25T13:52:14.413Z,14.80
2019-03-25T13:54:42.739Z,9.87
2019-03-25T13:57:10.996Z,6.83
2019-03-25T13:59:39.212Z,10.30
2019-03-25T14:02:07.878Z,16.30
2019-03-25T14:04:36.130Z,6.00
2019-03-25T14:07:04.466Z,10.93
2019-03-25T14:09:32.723Z,7.13
2019-03-25T14:12:00.970Z,13.47
2019-03-25T14:14:29.231Z,5.10
2019-03-25T14:16:57.548Z,10.30
2019-03-25T14:19:25.806Z,12.97
2019-03-25T14:21:54.030Z,5.40
2019-03-25T14:24:22.271Z,7.93
2019-03-25T14:26:50.585Z,12.83
2019-03-25T14:29:18.806Z,5.10
2019-03-25T14:31:47.122Z,7.13
2019-03-25T14:34:15.336Z,6.97
2019-03-25T14:36:43.621Z,3.73
2019-03-25T14:39:11.862Z,2.93
2019-03-25T14:41:40.087Z,7.53
2019-03-25T14:44:08.501Z,2.37
2019-03-25T14:46:36.757Z,7.47
2019-03-25T14:49:05.742Z,9.37
2019-03-25T14:51:33.964Z,2.27
2019-03-25T14:54:02.246Z,12.50
2019-03-25T14:56:30.506Z,3.73
2019-03-25T14:58:58.779Z,9.60
2019-03-25T15:01:27.001Z,4.03
2019-03-25T15:03:55.281Z,11.13
2019-03-25T15:06:23.628Z,8.67
2019-03-25T15:08:52.337Z,4.93
2019-03-25T15:11:20.541Z,5.90
2019-03-25T15:13:49.301Z,7.57
2019-03-25T15:16:17.680Z,13.30
2019-03-25T15:18:45.935Z,5.60
2019-03-25T15:21:14.488Z,7.07
2019-03-25T15:23:45.839Z,4.43
2019-03-25T15:26:14.024Z,7.23
2019-03-25T15:28:42.498Z,6.50
2019-03-25T15:31:10.699Z,8.30
2019-03-25T15:33:38.989Z,4.10
2019-03-25T15:36:07.207Z,5.70
2019-03-25T15:38:35.421Z,7.13
2019-03-25T15:41:03.654Z,5.30
2019-03-25T15:43:31.918Z,5.67
2019-03-25T15:46:11.401Z,3.60
2019-03-25T15:48:39.634Z,3.67
2019-03-25T15:51:07.950Z,6.40
2019-03-25T15:53:36.207Z,1.93
2019-03-25T15:56:04.899Z,3.57
2019-03-25T15:58:33.139Z,6.33
2019-03-25T16:01:01.376Z,5.73
2019-03-25T16:03:29.644Z,9.47
2019-03-25T16:05:57.948Z,4.67
2019-03-25T16:08:26.171Z,6.73
2019-03-25T16:10:54.417Z,5.97
2019-03-25T16:13:22.728Z,9.83
2019-03-25T16:15:51.217Z,7.63
2019-03-25T16:18:39.120Z,4.33
2019-03-25T16:21:08.226Z,7.93
2019-03-25T16:23:36.815Z,2.10
2019-03-25T16:26:05.238Z,8.90
2019-03-25T16:28:33.451Z,8.33
2019-03-25T16:31:01.670Z,5.43
2019-03-25T16:33:29.885Z,6.10
2019-03-25T16:35:58.159Z,6.83
2019-03-25T16:38:26.485Z,3.30
2019-03-25T16:40:54.712Z,10.47
2019-03-25T16:43:23.688Z,8.00
2019-03-25T16:45:51.892Z,3.93
2019-03-25T16:48:20.159Z,6.13
2019-03-25T16:50:48.458Z,2.63
2019-03-25T16:53:16.691Z,5.97
2019-03-25T16:55:44.938Z,5.60
2019-03-25T16:58:13.185Z,8.50
2019-03-25T17:00:41.446Z,8.13
2019-03-25T17:03:09.727Z,5.50
2019-03-25T17:05:37.961Z,9.33
2019-03-25T17:08:06.198Z,7.73
2019-03-25T17:10:34.446Z,7.73
2019-03-25T17:13:02.709Z,4.43
2019-03-25T17:15:30.926Z,12.83
2019-03-25T17:17:59.133Z,4.77
2019-03-25T17:20:27.385Z,3.03
2019-03-25T17:22:55.645Z,6.27
2019-03-25T17:25:23.897Z,5.17
2019-03-25T17:27:52.200Z,4.77
2019-03-25T17:30:21.335Z,7.13
2019-03-25T17:32:49.562Z,4.40
2019-03-25T17:35:17.764Z,4.57
2019-03-25T17:37:46.027Z,14.37
2019-03-25T17:40:14.524Z,6.63
2019-03-25T17:42:42.703Z,12.33
2019-03-25T17:45:11.125Z,6.17
2019-03-25T17:47:39.363Z,13.07
2019-03-25T17:50:10.814Z,4.83
2019-03-25T17:52:39.033Z,6.90
2019-03-25T17:55:07.961Z,8.00
2019-03-25T17:57:36.332Z,11.13
2019-03-25T18:00:22.998Z,7.17
2019-03-25T18:02:51.533Z,8.90
2019-03-25T18:05:23.005Z,11.47
2019-03-25T18:07:51.635Z,3.67
2019-03-25T18:10:20.594Z,14.63
2019-03-25T18:12:49.265Z,5.60
2019-03-25T18:15:18.032Z,9.13
2019-03-25T18:17:47.037Z,11.93
2019-03-25T18:20:18.840Z,7.93
2019-03-25T18:22:46.689Z,5.10
2019-03-25T18:25:15.535Z,6.20
2019-03-25T18:27:44.531Z,4.17
2019-03-25T18:30:15.600Z,5.77
2019-03-25T18:32:44.680Z,15.57
2019-03-25T18:35:19.125Z,6.53
2019-03-25T18:37:47.536Z,6.50
2019-03-25T18:40:16.558Z,9.97
2019-03-25T18:42:44.922Z,11.47
2019-03-25T18:45:13.670Z,7.20
2019-03-25T18:47:42.929Z,7.90
2019-03-25T18:50:11.934Z,9.23
2019-03-25T18:52:40.181Z,1.73
2019-03-25T18:55:08.521Z,10.03
2019-03-25T18:57:37.562Z,4.27
2019-03-25T19:00:06.328Z,4.40
2019-03-25T19:02:34.661Z,4.60
2019-03-25T19:05:03.340Z,3.70
2019-03-25T19:07:32.712Z,6.47
2019-03-25T19:10:01.466Z,6.63
2019-03-25T19:12:29.777Z,10.43
2019-03-25T19:14:58.029Z,2.53
2019-03-25T19:17:26.262Z,6.57
2019-03-25T19:19:54.506Z,6.37
2019-03-25T19:22:22.725Z,6.90
2019-03-25T19:24:51.011Z,15.40
2019-03-25T19:27:20.469Z,8.87
2019-03-25T19:29:49.059Z,18.70
2019-03-25T19:32:17.586Z,3.97
2019-03-25T19:34:46.533Z,9.27
2019-03-25T19:37:16.791Z,7.47
2019-03-25T19:39:45.761Z,5.80
2019-03-25T19:42:14.281Z,5.53
2019-03-25T19:44:43.053Z,6.07
2019-03-25T19:47:11.806Z,5.33
2019-03-25T19:49:40.352Z,11.43
2019-03-25T19:52:09.574Z,6.97
2019-03-25T19:54:38.466Z,5.77
2019-03-25T19:57:07.178Z,12.90
2019-03-25T19:59:36.147Z,5.87
2019-03-25T20:02:04.758Z,9.83
2019-03-25T20:04:33.136Z,10.50
2019-03-25T20:07:04.004Z,12.77
2019-03-25T20:09:33.398Z,9.13
2019-03-25T20:12:02.457Z,7.90
2019-03-25T20:14:30.903Z,4.47
2019-03-25T20:16:59.927Z,4.63
2019-03-25T20:19:29.339Z,8.00
2019-03-25T20:21:58.161Z,9.73
2019-03-25T20:24:27.217Z,6.17
2019-03-25T20:26:56.531Z,8.10
2019-03-25T20:29:25.007Z,9.93
2019-03-25T20:31:53.999Z,4.43
2019-03-25T20:34:22.565Z,17.77
2019-03-25T20:36:50.908Z,16.50
2019-03-25T20:39:19.945Z,11.50
2019-03-25T20:41:48.948Z,11.43
2019-03-25T20:44:18.288Z,14.77
2019-03-25T20:46:46.977Z,14.67
2019-03-25T20:49:15.584Z,10.37
2019-03-25T20:51:44.593Z,13.63
2019-03-25T20:54:13.429Z,15.30
2019-03-25T20:56:42.585Z,10.83
2019-03-25T20:59:11.281Z,10.10
2019-03-25T21:01:39.947Z,10.90
2019-03-25T21:04:08.933Z,15.07
2019-03-25T21:06:37.972Z,16.97
2019-03-25T21:09:06.969Z,11.73
2019-03-25T21:11:35.301Z,6.73
2019-03-25T21:14:04.093Z,8.77
2019-03-25T21:16:33.286Z,11.70
2019-03-25T21:19:02.429Z,13.20
2019-03-25T21:21:31.380Z,8.93
2019-03-25T21:24:00.556Z,16.90
2019-03-25T21:26:29.565Z,8.43
2019-03-25T21:28:58.639Z,15.63
2019-03-25T21:31:27.683Z,10.93
2019-03-25T21:33:56.889Z,18.33
2019-03-25T21:36:25.290Z,10.60
2019-03-25T21:38:54.552Z,11.03
2019-03-25T21:41:23.367Z,16.57
2019-03-25T21:43:52.224Z,15.77
2019-03-25T21:46:21.066Z,21.50
2019-03-25T21:48:49.897Z,13.73
2019-03-25T21:51:18.892Z,13.57
2019-03-25T21:53:47.926Z,14.63
2019-03-25T21:56:16.971Z,13.57
2019-03-25T21:58:46.172Z,9.57
2019-03-25T22:01:14.999Z,17.70
2019-03-25T22:03:43.198Z,10.83
2019-03-25T22:06:11.446Z,10.43
2019-03-25T22:08:39.681Z,14.40
2019-03-25T22:11:07.881Z,15.73
2019-03-25T22:13:36.147Z,13.40
2019-03-25T22:16:05.236Z,12.17
2019-03-25T22:18:34.454Z,15.27
2019-03-25T22:21:03.066Z,15.90
2019-03-25T22:23:31.910Z,14.87
2019-03-25T22:26:01.125Z,15.13
2019-03-25T22:28:29.796Z,10.30
2019-03-25T22:30:58.611Z,27.30
2019-03-25T22:33:27.577Z,11.80
2019-03-25T22:35:56.553Z,13.97
2019-03-25T22:38:25.781Z,13.10
2019-03-25T22:40:55.055Z,18.90
2019-03-25T22:43:23.773Z,13.43
2019-03-25T22:45:52.379Z,8.50
2019-03-25T22:48:21.424Z,13.93
2019-03-25T22:50:50.021Z,18.33
2019-03-25T22:53:19.097Z,12.23
2019-03-25T22:55:48.223Z,13.30
2019-03-25T22:58:17.216Z,14.70
2019-03-25T23:00:49.151Z,11.57
2019-03-25T23:03:17.529Z,13.63
2019-03-25T23:05:46.329Z,11.63
2019-03-25T23:08:14.925Z,15.17
2019-03-25T23:10:44.195Z,16.63
2019-03-25T23:13:13.046Z,17.20
2019-03-25T23:15:42.209Z,15.80
2019-03-25T23:18:11.185Z,18.10
2019-03-25T23:20:40.009Z,16.50
2019-03-25T23:23:08.958Z,14.83
2019-03-25T23:25:38.155Z,14.10
2019-03-25T23:28:07.206Z,14.20
2019-03-25T23:30:36.256Z,14.03
2019-03-25T23:33:04.628Z,19.10
2019-03-25T23:35:33.930Z,17.43
2019-03-25T23:38:02.605Z,10.70
2019-03-25T23:40:31.423Z,16.27
2019-03-25T23:43:00.398Z,21.07
2019-03-25T23:45:29.441Z,15.27
2019-03-25T23:47:58.075Z,9.03
2019-03-25T23:50:27.085Z,11.73
2019-03-25T23:52:56.294Z,10.87
2019-03-25T23:55:24.933Z,10.23
2019-03-25T23:57:53.672Z,15.53
